sensor_id;sensor_type;location;lat;lon;timestamp;pressure;altitude;pressure_sealevel;temperature;humidity
60920;BME280;59039;52.108;19.942;2022-10-31T00:00:59;100974.50;;;9.67;84.96
60920;BME280;59039;52.108;19.942;2022-10-31T00:03:24;100974.50;;;9.63;85.29
60920;BME280;59039;52.108;19.942;2022-10-31T00:05:50;100981.20;;;9.60;85.28
60920;BME280;59039;52.108;19.942;2022-10-31T00:08:16;100977.10;;;9.58;85.44
60920;BME280;59039;52.108;19.942;2022-10-31T00:10:42;100976.63;;;9.57;85.65
60920;BME280;59039;52.108;19.942;2022-10-31T00:13:09;100976.27;;;9.57;85.48
60920;BME280;59039;52.108;19.942;2022-10-31T00:15:36;100976.73;;;9.54;85.35
60920;BME280;59039;52.108;19.942;2022-10-31T00:18:02;100976.60;;;9.49;85.46
60920;BME280;59039;52.108;19.942;2022-10-31T00:20:27;100979.15;;;9.47;85.57
60920;BME280;59039;52.108;19.942;2022-10-31T00:22:52;100976.16;;;9.44;85.49
60920;BME280;59039;52.108;19.942;2022-10-31T00:25:18;100982.20;;;9.41;85.69
60920;BME280;59039;52.108;19.942;2022-10-31T00:27:43;100984.23;;;9.38;85.53
60920;BME280;59039;52.108;19.942;2022-10-31T00:30:08;100984.48;;;9.35;86.23
60920;BME280;59039;52.108;19.942;2022-10-31T00:32:34;100981.45;;;9.35;86.13
60920;BME280;59039;52.108;19.942;2022-10-31T00:34:59;100982.77;;;9.34;86.18
60920;BME280;59039;52.108;19.942;2022-10-31T00:37:24;100986.31;;;9.33;85.86
60920;BME280;59039;52.108;19.942;2022-10-31T00:39:49;100983.68;;;9.30;85.80
60920;BME280;59039;52.108;19.942;2022-10-31T00:42:15;100985.48;;;9.26;85.75
60920;BME280;59039;52.108;19.942;2022-10-31T00:44:40;100988.58;;;9.22;85.78
60920;BME280;59039;52.108;19.942;2022-10-31T00:47:05;100992.19;;;9.17;85.73
60920;BME280;59039;52.108;19.942;2022-10-31T00:49:30;100996.48;;;9.12;85.86
60920;BME280;59039;52.108;19.942;2022-10-31T00:51:55;100995.05;;;9.07;86.17
60920;BME280;59039;52.108;19.942;2022-10-31T00:54:21;100994.60;;;9.04;86.51
60920;BME280;59039;52.108;19.942;2022-10-31T00:56:46;100991.13;;;9.02;86.25
60920;BME280;59039;52.108;19.942;2022-10-31T00:59:11;100991.05;;;8.99;86.37
60920;BME280;59039;52.108;19.942;2022-10-31T01:01:36;100991.89;;;8.97;86.32
60920;BME280;59039;52.108;19.942;2022-10-31T01:04:01;100993.73;;;8.95;86.40
60920;BME280;59039;52.108;19.942;2022-10-31T01:06:27;100993.62;;;8.92;86.56
60920;BME280;59039;52.108;19.942;2022-10-31T01:08:52;100990.20;;;8.88;86.56
60920;BME280;59039;52.108;19.942;2022-10-31T01:11:19;100991.59;;;8.84;86.56
60920;BME280;59039;52.108;19.942;2022-10-31T01:13:46;100991.45;;;8.82;86.52
60920;BME280;59039;52.108;19.942;2022-10-31T01:16:14;100994.08;;;8.78;86.56
60920;BME280;59039;52.108;19.942;2022-10-31T01:18:39;100998.94;;;8.74;86.98
60920;BME280;59039;52.108;19.942;2022-10-31T01:21:13;100999.98;;;8.72;87.28
60920;BME280;59039;52.108;19.942;2022-10-31T01:23:40;100997.98;;;8.72;86.94
60920;BME280;59039;52.108;19.942;2022-10-31T01:26:17;100995.23;;;8.71;87.24
60920;BME280;59039;52.108;19.942;2022-10-31T01:28:48;100991.52;;;8.70;87.43
60920;BME280;59039;52.108;19.942;2022-10-31T01:31:15;100988.21;;;8.70;86.96
60920;BME280;59039;52.108;19.942;2022-10-31T01:33:40;100988.34;;;8.69;86.84
60920;BME280;59039;52.108;19.942;2022-10-31T01:36:27;100988.50;;;8.67;87.22
60920;BME280;59039;52.108;19.942;2022-10-31T01:38:57;100987.30;;;8.67;86.98
60920;BME280;59039;52.108;19.942;2022-10-31T01:41:25;100991.76;;;8.65;87.00
60920;BME280;59039;52.108;19.942;2022-10-31T01:43:59;100988.44;;;8.64;86.98
60920;BME280;59039;52.108;19.942;2022-10-31T01:46:29;100984.27;;;8.61;86.94
60920;BME280;59039;52.108;19.942;2022-10-31T01:49:00;100981.38;;;8.60;87.09
60920;BME280;59039;52.108;19.942;2022-10-31T01:51:32;100984.02;;;8.58;87.12
60920;BME280;59039;52.108;19.942;2022-10-31T01:54:03;100983.87;;;8.57;87.40
60920;BME280;59039;52.108;19.942;2022-10-31T01:56:29;100987.23;;;8.59;87.23
60920;BME280;59039;52.108;19.942;2022-10-31T01:58:56;100986.92;;;8.58;87.39
60920;BME280;59039;52.108;19.942;2022-10-31T02:01:24;100989.06;;;8.58;87.37
60920;BME280;59039;52.108;19.942;2022-10-31T02:03:50;100985.05;;;8.59;87.56
60920;BME280;59039;52.108;19.942;2022-10-31T02:06:46;100987.71;;;8.59;87.21
60920;BME280;59039;52.108;19.942;2022-10-31T02:09:13;100990.35;;;8.58;87.50
60920;BME280;59039;52.108;19.942;2022-10-31T02:11:40;100988.40;;;8.57;87.34
60920;BME280;59039;52.108;19.942;2022-10-31T02:14:06;100991.88;;;8.57;87.36
60920;BME280;59039;52.108;19.942;2022-10-31T02:16:31;100994.08;;;8.56;87.49
60920;BME280;59039;52.108;19.942;2022-10-31T02:18:56;100996.78;;;8.56;87.33
60920;BME280;59039;52.108;19.942;2022-10-31T02:21:23;100996.56;;;8.55;87.25
60920;BME280;59039;52.108;19.942;2022-10-31T02:27:15;100989.71;;;8.48;87.38
60920;BME280;59039;52.108;19.942;2022-10-31T02:30:13;100987.43;;;8.45;87.39
60920;BME280;59039;52.108;19.942;2022-10-31T02:38:07;100991.85;;;8.37;87.57
60920;BME280;59039;52.108;19.942;2022-10-31T02:40:44;100992.08;;;8.34;87.61
60920;BME280;59039;52.108;19.942;2022-10-31T02:43:36;100992.88;;;8.33;87.56
60920;BME280;59039;52.108;19.942;2022-10-31T02:48:52;100995.40;;;8.29;87.73
60920;BME280;59039;52.108;19.942;2022-10-31T02:51:18;100996.16;;;8.29;87.61
60920;BME280;59039;52.108;19.942;2022-10-31T02:53:43;100995.98;;;8.26;87.82
60920;BME280;59039;52.108;19.942;2022-10-31T02:56:14;100998.96;;;8.25;87.71
60920;BME280;59039;52.108;19.942;2022-10-31T02:58:57;100996.98;;;8.23;87.68
60920;BME280;59039;52.108;19.942;2022-10-31T03:06:52;101006.30;;;8.20;87.86
60920;BME280;59039;52.108;19.942;2022-10-31T03:11:58;101000.27;;;8.14;88.03
60920;BME280;59039;52.108;19.942;2022-10-31T03:14:34;101003.66;;;8.12;87.98
60920;BME280;59039;52.108;19.942;2022-10-31T03:17:05;100997.18;;;8.09;88.17
60920;BME280;59039;52.108;19.942;2022-10-31T03:19:37;100999.13;;;8.08;88.15
60920;BME280;59039;52.108;19.942;2022-10-31T03:22:15;101000.38;;;8.06;88.16
60920;BME280;59039;52.108;19.942;2022-10-31T03:24:41;100998.84;;;8.05;88.17
60920;BME280;59039;52.108;19.942;2022-10-31T03:27:11;101001.99;;;8.04;88.42
60920;BME280;59039;52.108;19.942;2022-10-31T03:29:40;101000.96;;;8.03;88.57
60920;BME280;59039;52.108;19.942;2022-10-31T03:32:13;100996.98;;;8.01;88.37
60920;BME280;59039;52.108;19.942;2022-10-31T03:34:41;100997.90;;;7.99;88.52
60920;BME280;59039;52.108;19.942;2022-10-31T03:37:11;100998.67;;;7.96;88.57
60920;BME280;59039;52.108;19.942;2022-10-31T03:39:41;100999.10;;;7.92;88.58
60920;BME280;59039;52.108;19.942;2022-10-31T03:42:14;101004.89;;;7.90;88.76
60920;BME280;59039;52.108;19.942;2022-10-31T03:44:43;101009.11;;;7.89;88.71
60920;BME280;59039;52.108;19.942;2022-10-31T03:47:11;101009.62;;;7.87;88.76
60920;BME280;59039;52.108;19.942;2022-10-31T03:49:37;101010.05;;;7.86;88.80
60920;BME280;59039;52.108;19.942;2022-10-31T03:52:26;101014.15;;;7.85;88.74
60920;BME280;59039;52.108;19.942;2022-10-31T03:54:56;101015.11;;;7.84;88.80
60920;BME280;59039;52.108;19.942;2022-10-31T03:57:35;101020.43;;;7.83;88.98
60920;BME280;59039;52.108;19.942;2022-10-31T04:00:12;101024.20;;;7.81;89.16
60920;BME280;59039;52.108;19.942;2022-10-31T04:02:42;101027.12;;;7.81;89.27
60920;BME280;59039;52.108;19.942;2022-10-31T04:05:11;101028.50;;;7.81;89.17
60920;BME280;59039;52.108;19.942;2022-10-31T04:07:41;101030.47;;;7.82;89.17
60920;BME280;59039;52.108;19.942;2022-10-31T04:10:10;101031.10;;;7.81;89.33
60920;BME280;59039;52.108;19.942;2022-10-31T04:12:38;101037.83;;;7.82;89.38
60920;BME280;59039;52.108;19.942;2022-10-31T04:15:06;101033.20;;;7.83;89.29
60920;BME280;59039;52.108;19.942;2022-10-31T04:17:35;101035.97;;;7.85;89.46
60920;BME280;59039;52.108;19.942;2022-10-31T04:20:02;101039.02;;;7.85;89.29
60920;BME280;59039;52.108;19.942;2022-10-31T04:22:27;101043.67;;;7.85;89.62
60920;BME280;59039;52.108;19.942;2022-10-31T04:24:53;101047.86;;;7.87;89.44
60920;BME280;59039;52.108;19.942;2022-10-31T04:27:18;101047.51;;;7.87;89.78
60920;BME280;59039;52.108;19.942;2022-10-31T04:29:43;101048.73;;;7.88;89.53
60920;BME280;59039;52.108;19.942;2022-10-31T04:32:08;101048.27;;;7.89;89.45
60920;BME280;59039;52.108;19.942;2022-10-31T04:34:33;101049.33;;;7.89;89.39
60920;BME280;59039;52.108;19.942;2022-10-31T04:36:58;101049.81;;;7.88;89.69
60920;BME280;59039;52.108;19.942;2022-10-31T04:39:24;101052.13;;;7.88;90.00
60920;BME280;59039;52.108;19.942;2022-10-31T04:41:49;101049.85;;;7.87;89.59
60920;BME280;59039;52.108;19.942;2022-10-31T04:44:15;101050.66;;;7.86;89.68
60920;BME280;59039;52.108;19.942;2022-10-31T04:46:40;101049.91;;;7.87;89.63
60920;BME280;59039;52.108;19.942;2022-10-31T04:49:05;101050.23;;;7.85;89.64
60920;BME280;59039;52.108;19.942;2022-10-31T04:51:30;101049.84;;;7.83;89.99
60920;BME280;59039;52.108;19.942;2022-10-31T04:53:56;101047.48;;;7.83;89.73
60920;BME280;59039;52.108;19.942;2022-10-31T04:56:21;101048.77;;;7.83;89.71
60920;BME280;59039;52.108;19.942;2022-10-31T04:58:46;101044.68;;;7.82;89.80
60920;BME280;59039;52.108;19.942;2022-10-31T05:01:12;101045.00;;;7.81;89.89
60920;BME280;59039;52.108;19.942;2022-10-31T05:03:37;101042.38;;;7.79;89.90
60920;BME280;59039;52.108;19.942;2022-10-31T05:06:02;101041.30;;;7.79;89.87
60920;BME280;59039;52.108;19.942;2022-10-31T05:08:27;101046.75;;;7.79;89.90
60920;BME280;59039;52.108;19.942;2022-10-31T05:10:53;101045.32;;;7.79;90.07
60920;BME280;59039;52.108;19.942;2022-10-31T05:13:18;101045.12;;;7.79;90.03
60920;BME280;59039;52.108;19.942;2022-10-31T05:15:43;101042.66;;;7.78;90.05
60920;BME280;59039;52.108;19.942;2022-10-31T05:18:08;101045.22;;;7.78;90.21
60920;BME280;59039;52.108;19.942;2022-10-31T05:20:33;101049.73;;;7.78;90.14
60920;BME280;59039;52.108;19.942;2022-10-31T05:22:59;101048.83;;;7.78;90.34
60920;BME280;59039;52.108;19.942;2022-10-31T05:25:26;101052.11;;;7.77;90.27
60920;BME280;59039;52.108;19.942;2022-10-31T05:27:53;101051.70;;;7.78;90.55
60920;BME280;59039;52.108;19.942;2022-10-31T05:30:21;101054.35;;;7.79;90.98
60920;BME280;59039;52.108;19.942;2022-10-31T05:32:48;101059.92;;;7.81;90.57
60920;BME280;59039;52.108;19.942;2022-10-31T05:35:16;101060.02;;;7.82;90.55
60920;BME280;59039;52.108;19.942;2022-10-31T05:37:42;101060.05;;;7.84;90.60
60920;BME280;59039;52.108;19.942;2022-10-31T05:40:10;101057.89;;;7.86;90.58
60920;BME280;59039;52.108;19.942;2022-10-31T05:42:38;101058.46;;;7.88;90.91
60920;BME280;59039;52.108;19.942;2022-10-31T05:45:10;101055.23;;;7.90;90.90
60920;BME280;59039;52.108;19.942;2022-10-31T05:47:35;101057.20;;;7.92;90.72
60920;BME280;59039;52.108;19.942;2022-10-31T05:50:01;101056.70;;;7.94;90.69
60920;BME280;59039;52.108;19.942;2022-10-31T05:52:26;101053.94;;;7.95;90.89
60920;BME280;59039;52.108;19.942;2022-10-31T05:54:51;101058.77;;;7.98;91.13
60920;BME280;59039;52.108;19.942;2022-10-31T05:57:16;101055.16;;;8.00;90.78
60920;BME280;59039;52.108;19.942;2022-10-31T05:59:42;101056.10;;;8.02;90.84
60920;BME280;59039;52.108;19.942;2022-10-31T06:02:07;101057.59;;;8.04;90.78
60920;BME280;59039;52.108;19.942;2022-10-31T06:04:34;101061.74;;;8.06;90.87
60920;BME280;59039;52.108;19.942;2022-10-31T06:06:59;101060.05;;;8.06;90.93
60920;BME280;59039;52.108;19.942;2022-10-31T06:09:24;101063.34;;;8.08;90.96
60920;BME280;59039;52.108;19.942;2022-10-31T06:11:49;101064.88;;;8.09;91.30
60920;BME280;59039;52.108;19.942;2022-10-31T06:14:15;101065.95;;;8.12;91.22
60920;BME280;59039;52.108;19.942;2022-10-31T06:16:40;101065.59;;;8.14;91.05
60920;BME280;59039;52.108;19.942;2022-10-31T06:19:05;101063.52;;;8.15;91.07
60920;BME280;59039;52.108;19.942;2022-10-31T06:21:30;101063.56;;;8.17;91.24
60920;BME280;59039;52.108;19.942;2022-10-31T06:23:56;101072.60;;;8.19;91.42
60920;BME280;59039;52.108;19.942;2022-10-31T06:26:21;101073.14;;;8.21;91.21
60920;BME280;59039;52.108;19.942;2022-10-31T06:28:46;101073.30;;;8.24;91.27
60920;BME280;59039;52.108;19.942;2022-10-31T06:31:11;101077.10;;;8.26;91.39
60920;BME280;59039;52.108;19.942;2022-10-31T06:33:36;101078.91;;;8.28;91.46
60920;BME280;59039;52.108;19.942;2022-10-31T06:36:02;101079.27;;;8.30;91.46
60920;BME280;59039;52.108;19.942;2022-10-31T06:38:28;101079.79;;;8.33;91.57
60920;BME280;59039;52.108;19.942;2022-10-31T06:40:53;101081.48;;;8.34;91.71
60920;BME280;59039;52.108;19.942;2022-10-31T06:43:20;101087.89;;;8.38;91.56
60920;BME280;59039;52.108;19.942;2022-10-31T06:45:45;101094.03;;;8.40;91.72
60920;BME280;59039;52.108;19.942;2022-10-31T06:48:10;101098.07;;;8.42;91.98
60920;BME280;59039;52.108;19.942;2022-10-31T06:50:35;101101.60;;;8.45;91.81
60920;BME280;59039;52.108;19.942;2022-10-31T06:53:01;101099.95;;;8.47;92.16
60920;BME280;59039;52.108;19.942;2022-10-31T06:55:27;101100.14;;;8.52;92.26
60920;BME280;59039;52.108;19.942;2022-10-31T06:57:53;101105.79;;;8.55;92.12
60920;BME280;59039;52.108;19.942;2022-10-31T07:00:20;101102.29;;;8.59;92.38
60920;BME280;59039;52.108;19.942;2022-10-31T07:02:59;101099.16;;;8.64;92.49
60920;BME280;59039;52.108;19.942;2022-10-31T07:05:25;101095.95;;;8.68;92.28
60920;BME280;59039;52.108;19.942;2022-10-31T07:07:55;101099.98;;;8.71;92.48
60920;BME280;59039;52.108;19.942;2022-10-31T07:10:22;101099.75;;;8.76;92.75
60920;BME280;59039;52.108;19.942;2022-10-31T07:12:47;101099.53;;;8.82;92.59
60920;BME280;59039;52.108;19.942;2022-10-31T07:15:12;101106.59;;;8.86;92.63
60920;BME280;59039;52.108;19.942;2022-10-31T07:17:37;101105.73;;;8.89;92.74
60920;BME280;59039;52.108;19.942;2022-10-31T07:20:03;101106.48;;;8.93;92.57
60920;BME280;59039;52.108;19.942;2022-10-31T07:22:35;101108.35;;;8.97;92.34
60920;BME280;59039;52.108;19.942;2022-10-31T07:25:01;101111.48;;;9.01;92.57
60920;BME280;59039;52.108;19.942;2022-10-31T07:27:27;101119.64;;;9.05;92.79
60920;BME280;59039;52.108;19.942;2022-10-31T07:29:52;101118.54;;;9.09;92.78
60920;BME280;59039;52.108;19.942;2022-10-31T07:32:17;101120.18;;;9.13;92.91
60920;BME280;59039;52.108;19.942;2022-10-31T07:34:42;101113.55;;;9.17;92.66
60920;BME280;59039;52.108;19.942;2022-10-31T07:37:07;101117.59;;;9.20;92.72
60920;BME280;59039;52.108;19.942;2022-10-31T07:39:32;101121.02;;;9.25;92.54
60920;BME280;59039;52.108;19.942;2022-10-31T07:41:58;101123.23;;;9.29;92.94
60920;BME280;59039;52.108;19.942;2022-10-31T07:44:24;101127.56;;;9.33;93.13
60920;BME280;59039;52.108;19.942;2022-10-31T07:46:49;101125.54;;;9.37;93.14
60920;BME280;59039;52.108;19.942;2022-10-31T07:49:14;101130.89;;;9.43;92.91
60920;BME280;59039;52.108;19.942;2022-10-31T07:51:39;101134.67;;;9.47;93.04
60920;BME280;59039;52.108;19.942;2022-10-31T07:54:04;101137.03;;;9.52;93.02
60920;BME280;59039;52.108;19.942;2022-10-31T07:56:30;101134.86;;;9.56;93.06
60920;BME280;59039;52.108;19.942;2022-10-31T07:58:55;101135.55;;;9.60;93.16
60920;BME280;59039;52.108;19.942;2022-10-31T08:01:20;101135.94;;;9.65;93.12
60920;BME280;59039;52.108;19.942;2022-10-31T08:03:45;101138.05;;;9.69;92.83
60920;BME280;59039;52.108;19.942;2022-10-31T08:06:11;101134.45;;;9.73;92.73
60920;BME280;59039;52.108;19.942;2022-10-31T08:08:36;101135.36;;;9.77;92.45
60920;BME280;59039;52.108;19.942;2022-10-31T08:11:01;101136.50;;;9.81;92.84
60920;BME280;59039;52.108;19.942;2022-10-31T08:13:26;101132.39;;;9.85;93.09
60920;BME280;59039;52.108;19.942;2022-10-31T08:15:51;101131.98;;;9.90;93.04
60920;BME280;59039;52.108;19.942;2022-10-31T08:18:17;101134.55;;;9.93;93.09
60920;BME280;59039;52.108;19.942;2022-10-31T08:20:43;101138.66;;;9.98;93.03
60920;BME280;59039;52.108;19.942;2022-10-31T08:23:10;101143.65;;;10.03;92.81
60920;BME280;59039;52.108;19.942;2022-10-31T08:25:36;101142.33;;;10.08;92.92
60920;BME280;59039;52.108;19.942;2022-10-31T08:28:01;101143.92;;;10.12;92.94
60920;BME280;59039;52.108;19.942;2022-10-31T08:30:29;101137.41;;;10.17;92.99
60920;BME280;59039;52.108;19.942;2022-10-31T08:33:10;101132.98;;;10.21;92.98
60920;BME280;59039;52.108;19.942;2022-10-31T08:35:35;101135.86;;;10.26;93.11
60920;BME280;59039;52.108;19.942;2022-10-31T08:38:01;101138.79;;;10.30;92.98
60920;BME280;59039;52.108;19.942;2022-10-31T08:40:28;101143.86;;;10.34;92.90
60920;BME280;59039;52.108;19.942;2022-10-31T08:43:06;101143.61;;;10.39;92.96
60920;BME280;59039;52.108;19.942;2022-10-31T08:45:33;101139.40;;;10.43;92.82
60920;BME280;59039;52.108;19.942;2022-10-31T08:48:01;101139.79;;;10.47;92.82
60920;BME280;59039;52.108;19.942;2022-10-31T08:50:27;101140.86;;;10.52;92.54
60920;BME280;59039;52.108;19.942;2022-10-31T08:52:53;101142.31;;;10.56;92.58
60920;BME280;59039;52.108;19.942;2022-10-31T08:55:19;101136.61;;;10.59;92.68
60920;BME280;59039;52.108;19.942;2022-10-31T08:57:44;101138.11;;;10.62;92.77
60920;BME280;59039;52.108;19.942;2022-10-31T09:00:10;101138.34;;;10.65;92.57
60920;BME280;59039;52.108;19.942;2022-10-31T09:02:35;101141.60;;;10.70;92.40
60920;BME280;59039;52.108;19.942;2022-10-31T09:05:00;101139.84;;;10.73;92.43
60920;BME280;59039;52.108;19.942;2022-10-31T09:07:25;101139.23;;;10.76;92.54
60920;BME280;59039;52.108;19.942;2022-10-31T09:09:51;101142.68;;;10.80;92.48
60920;BME280;59039;52.108;19.942;2022-10-31T09:12:16;101144.24;;;10.83;92.60
60920;BME280;59039;52.108;19.942;2022-10-31T09:14:41;101144.62;;;10.86;92.66
60920;BME280;59039;52.108;19.942;2022-10-31T09:17:06;101140.21;;;10.89;92.77
60920;BME280;59039;52.108;19.942;2022-10-31T09:19:31;101144.04;;;10.93;92.74
60920;BME280;59039;52.108;19.942;2022-10-31T09:21:56;101144.98;;;10.97;92.71
60920;BME280;59039;52.108;19.942;2022-10-31T09:24:22;101148.13;;;11.00;92.70
60920;BME280;59039;52.108;19.942;2022-10-31T09:26:47;101149.48;;;11.03;92.74
60920;BME280;59039;52.108;19.942;2022-10-31T09:29:12;101155.11;;;11.06;92.64
60920;BME280;59039;52.108;19.942;2022-10-31T09:31:37;101162.84;;;11.10;92.63
60920;BME280;59039;52.108;19.942;2022-10-31T09:34:03;101160.52;;;11.13;92.65
60920;BME280;59039;52.108;19.942;2022-10-31T09:36:28;101158.10;;;11.16;92.65
60920;BME280;59039;52.108;19.942;2022-10-31T09:38:53;101163.45;;;11.19;92.52
60920;BME280;59039;52.108;19.942;2022-10-31T09:44:06;101164.36;;;11.25;92.44
60920;BME280;59039;52.108;19.942;2022-10-31T09:46:46;101161.09;;;11.27;92.30
60920;BME280;59039;52.108;19.942;2022-10-31T09:49:53;101154.52;;;11.29;92.20
60920;BME280;59039;52.108;19.942;2022-10-31T09:52:33;101158.45;;;11.32;92.42
60920;BME280;59039;52.108;19.942;2022-10-31T09:55:14;101161.60;;;11.35;92.23
60920;BME280;59039;52.108;19.942;2022-10-31T09:57:41;101164.99;;;11.38;92.18
60920;BME280;59039;52.108;19.942;2022-10-31T10:00:15;101161.46;;;11.40;92.28
60920;BME280;59039;52.108;19.942;2022-10-31T10:02:47;101160.36;;;11.42;92.25
60920;BME280;59039;52.108;19.942;2022-10-31T10:05:21;101159.64;;;11.44;92.19
60920;BME280;59039;52.108;19.942;2022-10-31T10:08:09;101160.14;;;11.47;92.20
60920;BME280;59039;52.108;19.942;2022-10-31T10:10:49;101162.77;;;11.49;92.04
60920;BME280;59039;52.108;19.942;2022-10-31T10:13:39;101166.32;;;11.53;92.19
60920;BME280;59039;52.108;19.942;2022-10-31T10:22:09;101165.98;;;11.58;92.11
60920;BME280;59039;52.108;19.942;2022-10-31T10:24:59;101166.57;;;11.59;92.05
60920;BME280;59039;52.108;19.942;2022-10-31T10:32:32;101168.42;;;11.63;91.84
60920;BME280;59039;52.108;19.942;2022-10-31T10:35:18;101164.74;;;11.65;91.84
60920;BME280;59039;52.108;19.942;2022-10-31T10:37:46;101167.13;;;11.67;91.81
60920;BME280;59039;52.108;19.942;2022-10-31T10:40:21;101164.14;;;11.68;91.81
60920;BME280;59039;52.108;19.942;2022-10-31T10:43:17;101164.35;;;11.70;91.87
60920;BME280;59039;52.108;19.942;2022-10-31T10:45:46;101161.86;;;11.71;91.76
60920;BME280;59039;52.108;19.942;2022-10-31T10:48:16;101166.15;;;11.74;91.83
60920;BME280;59039;52.108;19.942;2022-10-31T10:50:51;101163.65;;;11.76;91.81
60920;BME280;59039;52.108;19.942;2022-10-31T10:53:39;101167.29;;;11.77;91.76
60920;BME280;59039;52.108;19.942;2022-10-31T10:56:30;101165.86;;;11.79;91.65
60920;BME280;59039;52.108;19.942;2022-10-31T10:58:57;101164.44;;;11.80;91.67
60920;BME280;59039;52.108;19.942;2022-10-31T11:01:22;101169.10;;;11.81;91.63
60920;BME280;59039;52.108;19.942;2022-10-31T11:03:48;101170.06;;;11.82;91.69
60920;BME280;59039;52.108;19.942;2022-10-31T11:06:20;101164.41;;;11.83;91.64
60920;BME280;59039;52.108;19.942;2022-10-31T11:08:48;101160.45;;;11.84;91.84
60920;BME280;59039;52.108;19.942;2022-10-31T11:13:42;101150.90;;;11.87;91.49
60920;BME280;59039;52.108;19.942;2022-10-31T11:16:15;101150.11;;;11.88;91.52
60920;BME280;59039;52.108;19.942;2022-10-31T11:18:50;101152.48;;;11.90;91.63
60920;BME280;59039;52.108;19.942;2022-10-31T11:21:21;101152.40;;;11.91;91.67
60920;BME280;59039;52.108;19.942;2022-10-31T11:23:48;101152.09;;;11.93;91.44
60920;BME280;59039;52.108;19.942;2022-10-31T11:26:20;101148.01;;;11.93;91.49
60920;BME280;59039;52.108;19.942;2022-10-31T11:28:58;101151.56;;;11.94;91.54
60920;BME280;59039;52.108;19.942;2022-10-31T11:31:25;101151.19;;;11.94;91.55
60920;BME280;59039;52.108;19.942;2022-10-31T11:34:11;101148.27;;;11.94;91.61
60920;BME280;59039;52.108;19.942;2022-10-31T11:36:39;101151.92;;;11.96;91.63
60920;BME280;59039;52.108;19.942;2022-10-31T11:39:17;101150.93;;;11.97;91.62
60920;BME280;59039;52.108;19.942;2022-10-31T11:41:43;101150.38;;;11.99;91.81
60920;BME280;59039;52.108;19.942;2022-10-31T11:44:13;101151.41;;;12.02;91.44
60920;BME280;59039;52.108;19.942;2022-10-31T11:46:42;101154.52;;;12.03;91.42
60920;BME280;59039;52.108;19.942;2022-10-31T11:49:18;101153.58;;;12.03;91.39
60920;BME280;59039;52.108;19.942;2022-10-31T11:51:48;101151.95;;;12.03;91.58
60920;BME280;59039;52.108;19.942;2022-10-31T11:54:22;101150.23;;;12.04;91.53
60920;BME280;59039;52.108;19.942;2022-10-31T11:56:48;101148.44;;;12.06;91.59
60920;BME280;59039;52.108;19.942;2022-10-31T11:59:28;101145.94;;;12.07;91.65
60920;BME280;59039;52.108;19.942;2022-10-31T12:01:55;101142.70;;;12.09;91.60
60920;BME280;59039;52.108;19.942;2022-10-31T12:04:29;101144.22;;;12.10;91.82
60920;BME280;59039;52.108;19.942;2022-10-31T12:06:57;101137.64;;;12.12;91.77
60920;BME280;59039;52.108;19.942;2022-10-31T12:09:24;101138.75;;;12.14;91.81
60920;BME280;59039;52.108;19.942;2022-10-31T12:14:56;101132.40;;;12.18;91.96
60920;BME280;59039;52.108;19.942;2022-10-31T12:17:34;101134.04;;;12.18;92.27
60920;BME280;59039;52.108;19.942;2022-10-31T12:25:22;101139.24;;;12.24;91.86
60920;BME280;59039;52.108;19.942;2022-10-31T12:27:59;101141.02;;;12.24;92.02
60920;BME280;59039;52.108;19.942;2022-10-31T12:30:39;101144.34;;;12.26;91.96
60920;BME280;59039;52.108;19.942;2022-10-31T12:36:08;101138.08;;;12.29;91.77
60920;BME280;59039;52.108;19.942;2022-10-31T12:38:54;101138.26;;;12.30;91.89
60920;BME280;59039;52.108;19.942;2022-10-31T12:50:22;101133.23;;;12.37;91.82
60920;BME280;59039;52.108;19.942;2022-10-31T12:55:58;101135.36;;;12.40;92.06
60920;BME280;59039;52.108;19.942;2022-10-31T12:58:42;101136.60;;;12.40;91.97
60920;BME280;59039;52.108;19.942;2022-10-31T13:01:32;101128.61;;;12.40;92.11
60920;BME280;59039;52.108;19.942;2022-10-31T13:04:08;101127.79;;;12.41;91.89
60920;BME280;59039;52.108;19.942;2022-10-31T13:06:48;101128.52;;;12.43;91.91
60920;BME280;59039;52.108;19.942;2022-10-31T13:09:20;101125.10;;;12.43;92.03
60920;BME280;59039;52.108;19.942;2022-10-31T13:11:58;101126.77;;;12.44;91.78
60920;BME280;59039;52.108;19.942;2022-10-31T13:14:31;101133.17;;;12.45;91.73
60920;BME280;59039;52.108;19.942;2022-10-31T13:16:59;101136.90;;;12.46;91.73
60920;BME280;59039;52.108;19.942;2022-10-31T13:19:30;101138.04;;;12.48;91.91
60920;BME280;59039;52.108;19.942;2022-10-31T13:22:07;101136.88;;;12.48;91.93
60920;BME280;59039;52.108;19.942;2022-10-31T13:24:38;101132.98;;;12.49;91.75
60920;BME280;59039;52.108;19.942;2022-10-31T13:27:18;101134.91;;;12.50;91.62
60920;BME280;59039;52.108;19.942;2022-10-31T13:32:46;101136.81;;;12.53;91.89
60920;BME280;59039;52.108;19.942;2022-10-31T13:35:35;101134.01;;;12.54;91.70
60920;BME280;59039;52.108;19.942;2022-10-31T13:38:17;101131.30;;;12.56;91.65
60920;BME280;59039;52.108;19.942;2022-10-31T13:44:06;101135.25;;;12.56;91.60
60920;BME280;59039;52.108;19.942;2022-10-31T13:46:40;101131.67;;;12.55;91.55
60920;BME280;59039;52.108;19.942;2022-10-31T13:49:35;101131.09;;;12.56;91.66
60920;BME280;59039;52.108;19.942;2022-10-31T13:54:37;101134.08;;;12.57;91.79
60920;BME280;59039;52.108;19.942;2022-10-31T13:57:07;101134.07;;;12.57;91.74
60920;BME280;59039;52.108;19.942;2022-10-31T13:59:47;101136.39;;;12.57;91.76
60920;BME280;59039;52.108;19.942;2022-10-31T14:02:15;101138.66;;;12.58;91.72
60920;BME280;59039;52.108;19.942;2022-10-31T14:04:48;101135.56;;;12.58;91.54